sensor_id;sensor_type;location;lat;lon;timestamp;pressure;altitude;pressure_sealevel;temperature;humidity
78990;BME280;68390;52.130;21.218;2023-11-19T00:00:19;101220.47;;;-0.84;100.00
78990;BME280;68390;52.130;21.218;2023-11-19T00:02:44;101228.25;;;-0.78;100.00
78990;BME280;68390;52.130;21.218;2023-11-19T00:05:10;101222.19;;;-0.83;100.00
78990;BME280;68390;52.130;21.218;2023-11-19T00:07:40;101229.72;;;-0.89;100.00
78990;BME280;68390;52.130;21.218;2023-11-19T00:10:13;101223.31;;;-0.87;100.00
78990;BME280;68390;52.130;21.218;2023-11-19T00:12:41;101226.00;;;-0.87;100.00
78990;BME280;68390;52.130;21.218;2023-11-19T00:15:07;101217.94;;;-0.87;100.00
78990;BME280;68390;52.130;21.218;2023-11-19T00:17:40;101213.56;;;-0.89;100.00
78990;BME280;68390;52.130;21.218;2023-11-19T00:20:06;101232.03;;;-0.82;100.00
78990;BME280;68390;52.130;21.218;2023-11-19T00:22:33;101226.75;;;-0.83;100.00
78990;BME280;68390;52.130;21.218;2023-11-19T00:24:58;101220.63;;;-0.87;100.00
78990;BME280;68390;52.130;21.218;2023-11-19T00:27:25;101217.59;;;-0.81;100.00
78990;BME280;68390;52.130;21.218;2023-11-19T00:29:50;101217.59;;;-0.81;100.00
78990;BME280;68390;52.130;21.218;2023-11-19T00:32:15;101207.88;;;-0.83;100.00
78990;BME280;68390;52.130;21.218;2023-11-19T00:34:43;101215.97;;;-0.83;100.00
78990;BME280;68390;52.130;21.218;2023-11-19T00:37:09;101214.09;;;-0.83;100.00
78990;BME280;68390;52.130;21.218;2023-11-19T00:39:34;101217.59;;;-0.81;100.00
78990;BME280;68390;52.130;21.218;2023-11-19T00:42:00;101210.56;;;-0.83;100.00
78990;BME280;68390;52.130;21.218;2023-11-19T00:44:25;101203.16;;;-0.80;100.00
78990;BME280;68390;52.130;21.218;2023-11-19T00:46:51;101180.72;;;-0.80;100.00
78990;BME280;68390;52.130;21.218;2023-11-19T00:49:16;101196.81;;;-0.79;100.00
78990;BME280;68390;52.130;21.218;2023-11-19T00:51:41;101178.97;;;-0.81;100.00
78990;BME280;68390;52.130;21.218;2023-11-19T00:54:07;101170.00;;;-0.82;100.00
78990;BME280;68390;52.130;21.218;2023-11-19T00:56:32;101186.38;;;-0.85;100.00
78990;BME280;68390;52.130;21.218;2023-11-19T00:58:57;101183.75;;;-0.86;100.00
78990;BME280;68390;52.130;21.218;2023-11-19T01:01:25;101186.44;;;-0.86;100.00
78990;BME280;68390;52.130;21.218;2023-11-19T01:03:51;101180.19;;;-0.87;100.00
78990;BME280;68390;52.130;21.218;2023-11-19T01:06:26;101180.97;;;-0.85;100.00
78990;BME280;68390;52.130;21.218;2023-11-19T01:08:52;101181.94;;;-0.86;100.00
78990;BME280;68390;52.130;21.218;2023-11-19T01:11:21;101172.03;;;-0.85;100.00
78990;BME280;68390;52.130;21.218;2023-11-19T01:13:47;101170.13;;;-0.83;100.00
78990;BME280;68390;52.130;21.218;2023-11-19T01:16:13;101154.91;;;-0.84;100.00
78990;BME280;68390;52.130;21.218;2023-11-19T01:18:38;101150.19;;;-0.81;100.00
78990;BME280;68390;52.130;21.218;2023-11-19T01:21:04;101144.00;;;-0.83;100.00
78990;BME280;68390;52.130;21.218;2023-11-19T01:23:30;101133.31;;;-0.84;100.00
78990;BME280;68390;52.130;21.218;2023-11-19T01:25:55;101128.00;;;-0.86;100.00
78990;BME280;68390;52.130;21.218;2023-11-19T01:28:21;101129.91;;;-0.88;100.00
78990;BME280;68390;52.130;21.218;2023-11-19T01:30:46;101131.56;;;-0.85;100.00
78990;BME280;68390;52.130;21.218;2023-11-19T01:33:11;101119.91;;;-0.86;100.00
78990;BME280;68390;52.130;21.218;2023-11-19T01:35:37;101124.28;;;-0.83;100.00
78990;BME280;68390;52.130;21.218;2023-11-19T01:38:02;101124.38;;;-0.85;100.00
78990;BME280;68390;52.130;21.218;2023-11-19T01:40:27;101131.31;;;-0.81;100.00
78990;BME280;68390;52.130;21.218;2023-11-19T01:42:53;101135.59;;;-0.77;100.00
78990;BME280;68390;52.130;21.218;2023-11-19T01:45:27;101141.94;;;-0.78;100.00
78990;BME280;68390;52.130;21.218;2023-11-19T01:47:54;101130.38;;;-0.80;100.00
78990;BME280;68390;52.130;21.218;2023-11-19T01:50:20;101130.22;;;-0.77;100.00
78990;BME280;68390;52.130;21.218;2023-11-19T01:52:46;101124.03;;;-0.79;100.00
78990;BME280;68390;52.130;21.218;2023-11-19T01:55:12;101114.19;;;-0.80;100.00
78990;BME280;68390;52.130;21.218;2023-11-19T01:57:38;101116.88;;;-0.80;100.00
78990;BME280;68390;52.130;21.218;2023-11-19T02:00:06;101104.19;;;-0.78;100.00
78990;BME280;68390;52.130;21.218;2023-11-19T02:02:36;101105.06;;;-0.77;100.00
78990;BME280;68390;52.130;21.218;2023-11-19T02:05:02;101090.72;;;-0.78;100.00
78990;BME280;68390;52.130;21.218;2023-11-19T02:07:28;101094.22;;;-0.76;100.00
78990;BME280;68390;52.130;21.218;2023-11-19T02:09:54;101092.38;;;-0.75;100.00
78990;BME280;68390;52.130;21.218;2023-11-19T02:12:19;101079.78;;;-0.75;100.00
78990;BME280;68390;52.130;21.218;2023-11-19T02:14:45;101076.22;;;-0.75;100.00
78990;BME280;68390;52.130;21.218;2023-11-19T02:17:27;101090.66;;;-0.76;100.00
78990;BME280;68390;52.130;21.218;2023-11-19T02:19:53;101086.19;;;-0.77;100.00
78990;BME280;68390;52.130;21.218;2023-11-19T02:22:38;101074.53;;;-0.78;100.00
78990;BME280;68390;52.130;21.218;2023-11-19T02:25:06;101073.59;;;-0.77;100.00
78990;BME280;68390;52.130;21.218;2023-11-19T02:30:13;101055.66;;;-0.78;100.00
78990;BME280;68390;52.130;21.218;2023-11-19T02:32:41;101057.41;;;-0.77;100.00
78990;BME280;68390;52.130;21.218;2023-11-19T02:35:07;101049.25;;;-0.75;100.00
78990;BME280;68390;52.130;21.218;2023-11-19T02:37:38;101062.72;;;-0.75;100.00
78990;BME280;68390;52.130;21.218;2023-11-19T02:40:05;101061.78;;;-0.74;100.00
78990;BME280;68390;52.130;21.218;2023-11-19T02:42:30;101051.88;;;-0.73;100.00
78990;BME280;68390;52.130;21.218;2023-11-19T02:44:57;101055.50;;;-0.75;100.00
78990;BME280;68390;52.130;21.218;2023-11-19T02:47:22;101048.19;;;-0.73;100.00
78990;BME280;68390;52.130;21.218;2023-11-19T02:49:49;101052.63;;;-0.71;100.00
78990;BME280;68390;52.130;21.218;2023-11-19T02:52:15;101043.78;;;-0.73;100.00
78990;BME280;68390;52.130;21.218;2023-11-19T02:54:40;101043.66;;;-0.72;100.00
78990;BME280;68390;52.130;21.218;2023-11-19T02:57:07;101026.81;;;-0.76;100.00
78990;BME280;68390;52.130;21.218;2023-11-19T02:59:38;101027.59;;;-0.73;100.00
78990;BME280;68390;52.130;21.218;2023-11-19T03:02:08;101024.91;;;-0.73;100.00
78990;BME280;68390;52.130;21.218;2023-11-19T03:04:37;101021.13;;;-0.71;100.00
78990;BME280;68390;52.130;21.218;2023-11-19T03:07:07;101020.28;;;-0.71;100.00
78990;BME280;68390;52.130;21.218;2023-11-19T03:09:33;101021.41;;;-0.76;100.00
78990;BME280;68390;52.130;21.218;2023-11-19T03:12:02;101013.31;;;-0.76;100.00
78990;BME280;68390;52.130;21.218;2023-11-19T03:14:27;101021.06;;;-0.69;100.00
78990;BME280;68390;52.130;21.218;2023-11-19T03:16:53;101008.44;;;-0.69;100.00
78990;BME280;68390;52.130;21.218;2023-11-19T03:19:18;101000.34;;;-0.69;100.00
78990;BME280;68390;52.130;21.218;2023-11-19T03:21:44;101000.34;;;-0.69;100.00
78990;BME280;68390;52.130;21.218;2023-11-19T03:24:10;100985.31;;;-0.73;100.00
78990;BME280;68390;52.130;21.218;2023-11-19T03:26:38;100996.78;;;-0.69;100.00
78990;BME280;68390;52.130;21.218;2023-11-19T03:29:03;100976.69;;;-0.80;100.00
78990;BME280;68390;52.130;21.218;2023-11-19T03:31:28;100984.25;;;-0.70;100.00
78990;BME280;68390;52.130;21.218;2023-11-19T03:33:54;100973.31;;;-0.67;100.00
78990;BME280;68390;52.130;21.218;2023-11-19T03:36:19;100967.03;;;-0.68;100.00
78990;BME280;68390;52.130;21.218;2023-11-19T03:38:45;100977.75;;;-0.66;100.00
78990;BME280;68390;52.130;21.218;2023-11-19T03:41:13;100966.25;;;-0.70;100.00
78990;BME280;68390;52.130;21.218;2023-11-19T03:43:39;100974.25;;;-0.68;100.00
78990;BME280;68390;52.130;21.218;2023-11-19T03:46:18;100962.38;;;-0.64;100.00
78990;BME280;68390;52.130;21.218;2023-11-19T03:48:44;100959.75;;;-0.66;100.00
78990;BME280;68390;52.130;21.218;2023-11-19T03:51:09;100960.53;;;-0.64;100.00
78990;BME280;68390;52.130;21.218;2023-11-19T03:53:35;100964.09;;;-0.63;100.00
78990;BME280;68390;52.130;21.218;2023-11-19T03:56:01;100945.41;;;-0.66;100.00
78990;BME280;68390;52.130;21.218;2023-11-19T03:58:26;100954.94;;;-0.61;100.00
78990;BME280;68390;52.130;21.218;2023-11-19T04:00:51;100960.34;;;-0.61;100.00
78990;BME280;68390;52.130;21.218;2023-11-19T04:03:17;100942.34;;;-0.60;100.00
78990;BME280;68390;52.130;21.218;2023-11-19T04:05:44;100937.91;;;-0.61;100.00
78990;BME280;68390;52.130;21.218;2023-11-19T04:08:10;100933.56;;;-0.64;100.00
78990;BME280;68390;52.130;21.218;2023-11-19T04:10:35;100926.16;;;-0.60;100.00
78990;BME280;68390;52.130;21.218;2023-11-19T04:13:01;100932.34;;;-0.58;100.00
78990;BME280;68390;52.130;21.218;2023-11-19T04:15:26;100922.41;;;-0.58;100.00
78990;BME280;68390;52.130;21.218;2023-11-19T04:17:51;100920.00;;;-0.62;100.00
78990;BME280;68390;52.130;21.218;2023-11-19T04:20:17;100913.53;;;-0.60;100.00
78990;BME280;68390;52.130;21.218;2023-11-19T04:22:42;100912.66;;;-0.60;100.00
78990;BME280;68390;52.130;21.218;2023-11-19T04:25:08;100909.97;;;-0.60;100.00
78990;BME280;68390;52.130;21.218;2023-11-19T04:27:34;100909.91;;;-0.59;100.00
78990;BME280;68390;52.130;21.218;2023-11-19T04:29:59;100894.59;;;-0.58;100.00
78990;BME280;68390;52.130;21.218;2023-11-19T04:32:26;100899.97;;;-0.58;100.00
78990;BME280;68390;52.130;21.218;2023-11-19T04:34:52;100890.06;;;-0.58;100.00
78990;BME280;68390;52.130;21.218;2023-11-19T04:37:17;100891.97;;;-0.60;100.00
78990;BME280;68390;52.130;21.218;2023-11-19T04:39:46;100890.22;;;-0.61;100.00
78990;BME280;68390;52.130;21.218;2023-11-19T04:42:11;100868.16;;;-0.67;100.00
78990;BME280;68390;52.130;21.218;2023-11-19T04:44:37;100867.19;;;-0.66;100.00
78990;BME280;68390;52.130;21.218;2023-11-19T04:47:03;100869.53;;;-0.60;100.00
78990;BME280;68390;52.130;21.218;2023-11-19T04:49:28;100868.47;;;-0.58;100.00
78990;BME280;68390;52.130;21.218;2023-11-19T04:51:55;100861.25;;;-0.57;100.00
78990;BME280;68390;52.130;21.218;2023-11-19T04:54:21;100851.44;;;-0.58;100.00
78990;BME280;68390;52.130;21.218;2023-11-19T04:56:46;100852.22;;;-0.56;100.00
78990;BME280;68390;52.130;21.218;2023-11-19T04:59:15;100846.91;;;-0.58;100.00
78990;BME280;68390;52.130;21.218;2023-11-19T05:01:40;100837.16;;;-0.60;100.00
78990;BME280;68390;52.130;21.218;2023-11-19T05:04:07;100840.63;;;-0.58;100.00
78990;BME280;68390;52.130;21.218;2023-11-19T05:06:33;100837.16;;;-0.60;100.00
78990;BME280;68390;52.130;21.218;2023-11-19T05:08:59;100843.16;;;-0.55;100.00
78990;BME280;68390;52.130;21.218;2023-11-19T05:11:35;100839.69;;;-0.57;100.00
78990;BME280;68390;52.130;21.218;2023-11-19T05:14:02;100841.44;;;-0.56;100.00
78990;BME280;68390;52.130;21.218;2023-11-19T05:16:29;100831.75;;;-0.60;100.00
78990;BME280;68390;52.130;21.218;2023-11-19T05:18:54;100837.16;;;-0.60;100.00
78990;BME280;68390;52.130;21.218;2023-11-19T05:21:20;100830.81;;;-0.59;100.00
78990;BME280;68390;52.130;21.218;2023-11-19T05:23:45;100819.94;;;-0.58;100.00
78990;BME280;68390;52.130;21.218;2023-11-19T05:26:22;100816.38;;;-0.58;100.00
78990;BME280;68390;52.130;21.218;2023-11-19T05:28:48;100817.16;;;-0.56;100.00
78990;BME280;68390;52.130;21.218;2023-11-19T05:31:15;100819.75;;;-0.55;100.00
78990;BME280;68390;52.130;21.218;2023-11-19T05:33:41;100822.19;;;-0.50;100.00
78990;BME280;68390;52.130;21.218;2023-11-19T05:36:06;100819.47;;;-0.50;100.00
78990;BME280;68390;52.130;21.218;2023-11-19T05:38:34;100822.38;;;-0.53;100.00
78990;BME280;68390;52.130;21.218;2023-11-19T05:40:59;100814.97;;;-0.50;100.00
78990;BME280;68390;52.130;21.218;2023-11-19T05:43:24;100820.25;;;-0.48;100.00
78990;BME280;68390;52.130;21.218;2023-11-19T05:45:50;100820.25;;;-0.48;100.00
78990;BME280;68390;52.130;21.218;2023-11-19T05:48:15;100823.84;;;-0.48;100.00
78990;BME280;68390;52.130;21.218;2023-11-19T05:50:42;100818.53;;;-0.49;100.00
78990;BME280;68390;52.130;21.218;2023-11-19T05:53:07;100820.25;;;-0.48;100.00
78990;BME280;68390;52.130;21.218;2023-11-19T05:55:38;100814.28;;;-0.53;100.00
78990;BME280;68390;52.130;21.218;2023-11-19T05:58:11;100813.50;;;-0.55;100.00
78990;BME280;68390;52.130;21.218;2023-11-19T06:00:38;100808.28;;;-0.58;100.00
78990;BME280;68390;52.130;21.218;2023-11-19T06:03:04;100803.66;;;-0.56;100.00
78990;BME280;68390;52.130;21.218;2023-11-19T06:05:29;100801.75;;;-0.54;100.00
78990;BME280;68390;52.130;21.218;2023-11-19T06:07:55;100807.94;;;-0.52;100.00
78990;BME280;68390;52.130;21.218;2023-11-19T06:10:20;100813.34;;;-0.52;100.00
78990;BME280;68390;52.130;21.218;2023-11-19T06:12:46;100807.72;;;-0.49;100.00
78990;BME280;68390;52.130;21.218;2023-11-19T06:15:12;100808.59;;;-0.49;100.00
78990;BME280;68390;52.130;21.218;2023-11-19T06:17:38;100797.91;;;-0.50;100.00
78990;BME280;68390;52.130;21.218;2023-11-19T06:20:04;100805.81;;;-0.47;100.00
78990;BME280;68390;52.130;21.218;2023-11-19T06:22:30;100805.03;;;-0.49;100.00
78990;BME280;68390;52.130;21.218;2023-11-19T06:24:56;100803.28;;;-0.50;100.00
78990;BME280;68390;52.130;21.218;2023-11-19T06:27:21;100795.41;;;-0.53;100.00
78990;BME280;68390;52.130;21.218;2023-11-19T06:29:47;100805.72;;;-0.46;100.00
78990;BME280;68390;52.130;21.218;2023-11-19T06:32:13;100801.56;;;-0.51;100.00
78990;BME280;68390;52.130;21.218;2023-11-19T06:34:38;100802.41;;;-0.51;100.00
78990;BME280;68390;52.130;21.218;2023-11-19T06:37:04;100797.03;;;-0.51;100.00
78990;BME280;68390;52.130;21.218;2023-11-19T06:39:29;100793.28;;;-0.48;100.00
78990;BME280;68390;52.130;21.218;2023-11-19T06:41:55;100790.88;;;-0.53;100.00
78990;BME280;68390;52.130;21.218;2023-11-19T06:44:20;100777.56;;;-0.56;100.00
78990;BME280;68390;52.130;21.218;2023-11-19T06:46:46;100774.69;;;-0.53;100.00
78990;BME280;68390;52.130;21.218;2023-11-19T06:49:11;100761.47;;;-0.57;100.00
78990;BME280;68390;52.130;21.218;2023-11-19T06:51:41;100762.50;;;-0.60;100.00
78990;BME280;68390;52.130;21.218;2023-11-19T06:54:07;100763.38;;;-0.59;100.00
78990;BME280;68390;52.130;21.218;2023-11-19T06:56:32;100767.03;;;-0.60;100.00
78990;BME280;68390;52.130;21.218;2023-11-19T06:58:58;100763.59;;;-0.62;100.00
78990;BME280;68390;52.130;21.218;2023-11-19T07:01:23;100760.88;;;-0.62;100.00
78990;BME280;68390;52.130;21.218;2023-11-19T07:03:49;100742.97;;;-0.63;100.00
78990;BME280;68390;52.130;21.218;2023-11-19T07:06:14;100748.25;;;-0.62;100.00
78990;BME280;68390;52.130;21.218;2023-11-19T07:08:43;100747.03;;;-0.56;100.00
78990;BME280;68390;52.130;21.218;2023-11-19T07:11:10;100745.13;;;-0.54;100.00
78990;BME280;68390;52.130;21.218;2023-11-19T07:13:39;100742.22;;;-0.51;100.00
78990;BME280;68390;52.130;21.218;2023-11-19T07:16:05;100735.84;;;-0.50;100.00
78990;BME280;68390;52.130;21.218;2023-11-19T07:18:31;100731.25;;;-0.48;100.00
78990;BME280;68390;52.130;21.218;2023-11-19T07:20:57;100728.56;;;-0.48;100.00
78990;BME280;68390;52.130;21.218;2023-11-19T07:23:22;100728.19;;;-0.42;100.00
78990;BME280;68390;52.130;21.218;2023-11-19T07:25:48;100723.66;;;-0.42;100.00
78990;BME280;68390;52.130;21.218;2023-11-19T07:28:15;100727.13;;;-0.40;100.00
78990;BME280;68390;52.130;21.218;2023-11-19T07:30:41;100713.94;;;-0.44;100.00
78990;BME280;68390;52.130;21.218;2023-11-19T07:33:07;100717.41;;;-0.42;100.00
78990;BME280;68390;52.130;21.218;2023-11-19T07:35:33;100718.75;;;-0.35;100.00
78990;BME280;68390;52.130;21.218;2023-11-19T07:37:59;100708.16;;;-0.38;100.00
78990;BME280;68390;52.130;21.218;2023-11-19T07:40:24;100701.78;;;-0.37;100.00
78990;BME280;68390;52.130;21.218;2023-11-19T07:42:50;100711.44;;;-0.33;100.00
78990;BME280;68390;52.130;21.218;2023-11-19T07:45:16;100704.78;;;-0.27;100.00
78990;BME280;68390;52.130;21.218;2023-11-19T07:47:42;100705.75;;;-0.28;100.00
78990;BME280;68390;52.130;21.218;2023-11-19T07:50:10;100699.47;;;-0.29;100.00
78990;BME280;68390;52.130;21.218;2023-11-19T07:52:36;100696.69;;;-0.27;100.00
78990;BME280;68390;52.130;21.218;2023-11-19T07:55:02;100697.66;;;-0.28;100.00
78990;BME280;68390;52.130;21.218;2023-11-19T07:57:27;100687.38;;;-0.22;100.00
78990;BME280;68390;52.130;21.218;2023-11-19T07:59:56;100692.78;;;-0.22;100.00
78990;BME280;68390;52.130;21.218;2023-11-19T08:02:22;100693.72;;;-0.23;100.00
78990;BME280;68390;52.130;21.218;2023-11-19T08:04:49;100683.91;;;-0.24;100.00
78990;BME280;68390;52.130;21.218;2023-11-19T08:07:19;100681.59;;;-0.16;100.00
78990;BME280;68390;52.130;21.218;2023-11-19T08:09:45;100667.63;;;-0.22;100.00
78990;BME280;68390;52.130;21.218;2023-11-19T08:12:10;100670.09;;;-0.19;100.00
78990;BME280;68390;52.130;21.218;2023-11-19T08:14:36;100674.09;;;-0.11;100.00
78990;BME280;68390;52.130;21.218;2023-11-19T08:17:02;100661.31;;;-0.09;100.00
78990;BME280;68390;52.130;21.218;2023-11-19T08:19:28;100664.25;;;-0.12;100.00
78990;BME280;68390;52.130;21.218;2023-11-19T08:21:53;100655.19;;;-0.11;100.00
78990;BME280;68390;52.130;21.218;2023-11-19T08:24:18;100644.47;;;-0.12;100.00
78990;BME280;68390;52.130;21.218;2023-11-19T08:26:44;100653.63;;;-0.01;100.00
78990;BME280;68390;52.130;21.218;2023-11-19T08:29:09;100642.72;;;0.01;100.00
78990;BME280;68390;52.130;21.218;2023-11-19T08:31:35;100645.03;;;0.07;100.00
78990;BME280;68390;52.130;21.218;2023-11-19T08:34:01;100637.59;;;0.11;100.00
78990;BME280;68390;52.130;21.218;2023-11-19T08:36:26;100638.38;;;0.13;100.00
78990;BME280;68390;52.130;21.218;2023-11-19T08:38:53;100645.00;;;0.21;100.00
78990;BME280;68390;52.130;21.218;2023-11-19T08:41:18;100637.78;;;0.22;100.00
78990;BME280;68390;52.130;21.218;2023-11-19T08:43:45;100630.34;;;0.25;100.00
78990;BME280;68390;52.130;21.218;2023-11-19T08:46:11;100613.28;;;0.25;100.00
78990;BME280;68390;52.130;21.218;2023-11-19T08:48:37;100611.34;;;0.27;99.90
78990;BME280;68390;52.130;21.218;2023-11-19T08:51:03;100609.72;;;0.24;99.87
78990;BME280;68390;52.130;21.218;2023-11-19T08:53:29;100615.97;;;0.25;100.00
78990;BME280;68390;52.130;21.218;2023-11-19T08:55:55;100616.66;;;0.28;99.68
78990;BME280;68390;52.130;21.218;2023-11-19T08:58:20;100611.03;;;0.31;100.00
78990;BME280;68390;52.130;21.218;2023-11-19T09:00:46;100607.97;;;0.23;99.80
78990;BME280;68390;52.130;21.218;2023-11-19T09:03:11;100606.91;;;0.26;100.00
78990;BME280;68390;52.130;21.218;2023-11-19T09:05:36;100601.59;;;0.24;100.00
78990;BME280;68390;52.130;21.218;2023-11-19T09:08:02;100593.81;;;0.20;100.00
78990;BME280;68390;52.130;21.218;2023-11-19T09:10:27;100591.00;;;0.21;100.00
78990;BME280;68390;52.130;21.218;2023-11-19T09:12:54;100605.19;;;0.25;100.00
78990;BME280;68390;52.130;21.218;2023-11-19T09:15:19;100592.84;;;0.21;100.00
78990;BME280;68390;52.130;21.218;2023-11-19T09:17:45;100588.97;;;0.25;100.00
78990;BME280;68390;52.130;21.218;2023-11-19T09:20:10;100592.03;;;0.33;100.00
78990;BME280;68390;52.130;21.218;2023-11-19T09:22:40;100574.31;;;0.29;100.00
78990;BME280;68390;52.130;21.218;2023-11-19T09:25:05;100582.34;;;0.43;100.00
78990;BME280;68390;52.130;21.218;2023-11-19T09:27:31;100573.16;;;0.60;100.00
78990;BME280;68390;52.130;21.218;2023-11-19T09:29:56;100562.09;;;0.63;100.00
78990;BME280;68390;52.130;21.218;2023-11-19T09:32:24;100571.41;;;0.59;99.12
78990;BME280;68390;52.130;21.218;2023-11-19T09:34:49;100555.81;;;0.50;98.66
78990;BME280;68390;52.130;21.218;2023-11-19T09:37:14;100556.59;;;0.52;99.12
78990;BME280;68390;52.130;21.218;2023-11-19T09:39:40;100548.00;;;0.45;99.65
78990;BME280;68390;52.130;21.218;2023-11-19T09:42:11;100547.91;;;0.47;98.94
78990;BME280;68390;52.130;21.218;2023-11-19T09:44:42;100545.22;;;0.47;99.24
78990;BME280;68390;52.130;21.218;2023-11-19T09:47:08;100541.63;;;0.46;99.54
78990;BME280;68390;52.130;21.218;2023-11-19T09:49:35;100537.41;;;0.42;99.50
78990;BME280;68390;52.130;21.218;2023-11-19T09:52:01;100525.84;;;0.40;99.38
78990;BME280;68390;52.130;21.218;2023-11-19T09:54:28;100521.63;;;0.36;99.22
78990;BME280;68390;52.130;21.218;2023-11-19T09:56:54;100525.94;;;0.39;100.00
78990;BME280;68390;52.130;21.218;2023-11-19T09:59:20;100517.75;;;0.40;100.00
78990;BME280;68390;52.130;21.218;2023-11-19T10:01:46;100501.75;;;0.37;100.00
78990;BME280;68390;52.130;21.218;2023-11-19T10:04:15;100509.28;;;0.32;99.66
78990;BME280;68390;52.130;21.218;2023-11-19T10:06:42;100511.00;;;0.33;100.00
78990;BME280;68390;52.130;21.218;2023-11-19T10:09:07;100494.38;;;0.26;100.00
78990;BME280;68390;52.130;21.218;2023-11-19T10:11:32;100497.84;;;0.28;100.00
78990;BME280;68390;52.130;21.218;2023-11-19T10:13:59;100496.63;;;0.32;100.00
78990;BME280;68390;52.130;21.218;2023-11-19T10:16:29;100496.53;;;0.34;100.00
78990;BME280;68390;52.130;21.218;2023-11-19T10:18:57;100480.75;;;0.28;100.00
78990;BME280;68390;52.130;21.218;2023-11-19T10:21:23;100480.75;;;0.28;100.00
78990;BME280;68390;52.130;21.218;2023-11-19T10:26:20;100472.31;;;0.20;100.00
78990;BME280;68390;52.130;21.218;2023-11-19T10:28:46;100486.56;;;0.22;100.00
78990;BME280;68390;52.130;21.218;2023-11-19T10:31:16;100466.59;;;0.24;100.00
78990;BME280;68390;52.130;21.218;2023-11-19T10:33:42;100466.78;;;0.21;100.00
78990;BME280;68390;52.130;21.218;2023-11-19T10:36:10;100451.88;;;0.16;100.00
78990;BME280;68390;52.130;21.218;2023-11-19T10:38:38;100453.09;;;0.24;100.00
78990;BME280;68390;52.130;21.218;2023-11-19T10:41:04;100447.69;;;0.24;100.00
78990;BME280;68390;52.130;21.218;2023-11-19T10:43:30;100445.09;;;0.23;100.00
78990;BME280;68390;52.130;21.218;2023-11-19T10:46:09;100445.31;;;0.20;100.00
78990;BME280;68390;52.130;21.218;2023-11-19T10:48:36;100448.88;;;0.20;100.00
78990;BME280;68390;52.130;21.218;2023-11-19T10:51:04;100444.22;;;0.22;100.00
78990;BME280;68390;52.130;21.218;2023-11-19T10:53:31;100432.78;;;0.19;100.00
78990;BME280;68390;52.130;21.218;2023-11-19T10:55:59;100429.13;;;0.20;100.00
78990;BME280;68390;52.130;21.218;2023-11-19T10:58:27;100420.16;;;0.19;100.00
78990;BME280;68390;52.130;21.218;2023-11-19T11:00:59;100423.59;;;0.21;100.00
78990;BME280;68390;52.130;21.218;2023-11-19T11:03:36;100410.41;;;0.17;100.00
78990;BME280;68390;52.130;21.218;2023-11-19T11:06:04;100412.91;;;0.20;100.00
78990;BME280;68390;52.130;21.218;2023-11-19T11:08:31;100413.53;;;0.23;100.00
78990;BME280;68390;52.130;21.218;2023-11-19T11:10:57;100399.94;;;0.25;100.00
78990;BME280;68390;52.130;21.218;2023-11-19T11:13:24;100399.94;;;0.25;100.00
78990;BME280;68390;52.130;21.218;2023-11-19T11:15:51;100381.38;;;0.20;100.00
78990;BME280;68390;52.130;21.218;2023-11-19T11:18:17;100367.75;;;0.22;100.00
78990;BME280;68390;52.130;21.218;2023-11-19T11:20:46;100370.44;;;0.22;100.00
78990;BME280;68390;52.130;21.218;2023-11-19T11:27:01;100372.75;;;0.28;100.00
78990;BME280;68390;52.130;21.218;2023-11-19T11:29:45;100363.00;;;0.25;100.00
78990;BME280;68390;52.130;21.218;2023-11-19T11:32:25;100356.75;;;0.25;100.00
78990;BME280;68390;52.130;21.218;2023-11-19T11:35:08;100349.50;;;0.25;100.00
78990;BME280;68390;52.130;21.218;2023-11-19T11:37:49;100332.97;;;0.17;100.00
78990;BME280;68390;52.130;21.218;2023-11-19T11:40:16;100329.94;;;0.22;100.00
78990;BME280;68390;52.130;21.218;2023-11-19T11:42:46;100329.41;;;0.17;100.00
78990;BME280;68390;52.130;21.218;2023-11-19T11:45:13;100336.22;;;0.22;100.00
78990;BME280;68390;52.130;21.218;2023-11-19T11:57:56;100312.66;;;0.24;100.00
78990;BME280;68390;52.130;21.218;2023-11-19T12:00:31;100298.63;;;0.19;100.00
78990;BME280;68390;52.130;21.218;2023-11-19T12:02:59;100300.38;;;0.20;100.00
78990;BME280;68390;52.130;21.218;2023-11-19T12:05:25;100296.47;;;0.24;100.00
78990;BME280;68390;52.130;21.218;2023-11-19T12:07:59;100283.84;;;0.25;100.00
78990;BME280;68390;52.130;21.218;2023-11-19T12:10:29;100287.09;;;0.30;100.00
78990;BME280;68390;52.130;21.218;2023-11-19T12:13:00;100273.78;;;0.27;100.00
78990;BME280;68390;52.130;21.218;2023-11-19T12:15:26;100279.63;;;0.33;100.00
78990;BME280;68390;52.130;21.218;2023-11-19T12:17:53;100261.38;;;0.37;100.00
78990;BME280;68390;52.130;21.218;2023-11-19T12:20:22;100254.44;;;0.33;100.00
78990;BME280;68390;52.130;21.218;2023-11-19T12:22:48;100254.44;;;0.33;100.00
78990;BME280;68390;52.130;21.218;2023-11-19T12:25:15;100250.00;;;0.32;100.00
78990;BME280;68390;52.130;21.218;2023-11-19T12:27:48;100235.78;;;0.30;100.00
78990;BME280;68390;52.130;21.218;2023-11-19T12:30:32;100242.91;;;0.31;100.00
78990;BME280;68390;52.130;21.218;2023-11-19T12:32:58;100242.25;;;0.27;100.00
78990;BME280;68390;52.130;21.218;2023-11-19T12:35:24;100248.53;;;0.28;100.00
78990;BME280;68390;52.130;21.218;2023-11-19T12:37:51;100242.03;;;0.30;100.00
78990;BME280;68390;52.130;21.218;2023-11-19T12:40:22;100240.53;;;0.26;100.00
78990;BME280;68390;52.130;21.218;2023-11-19T12:42:49;100236.19;;;0.24;100.00
78990;BME280;68390;52.130;21.218;2023-11-19T12:45:15;100223.16;;;0.18;100.00
78990;BME280;68390;52.130;21.218;2023-11-19T12:47:43;100209.97;;;0.13;100.00
78990;BME280;68390;52.130;21.218;2023-11-19T12:50:09;100215.25;;;0.15;100.00